2AK3 weather

Public forecast

Using degrees Fahrenheit for public forecast. Weather courtesy of forecast.io.

Closest aviation weather report (METAR) to Five Finger CG Heliport

Closest report is Kake Airport, 20.6 nm (38.2 km) SSW. Retrieved 2020/08/09 12:56 UTC (55 minutes ago):

PAFE 091256Z AUTO 10006G14KT 4SM RA BR BKN026 OVC033 12/11 A2995 RMK AO2 SLP155 P0010 T01170106

Closest aviation forecast (TAF) to Five Finger CG Heliport

Closest forecast is Petersburg James A Johnson Airport, 35.9 nm (66.6 km) SE. Retrieved 2020/08/09 12:42 UTC (1 hour ago):

TAF PAPG 091140Z 0912/1012 14010KT P6SM -RA BKN024 BKN029 OVC080 WS020/14040KT FM091500 13010G17KT 4SM -RA BR OVC020 WS020/13050KT FM092200 14011G19KT 4SM -RA BR OVC025 WS020/19030KT FM100200 16010G18KT 2SM -RA BR OVC015 WS020/20040KT AMD LTD TO CLD VIS AND WIND 0912/0915